createdAt,value
2022-09-30T00:01:56.451Z,8.26
2022-09-30T00:04:26.680Z,8.20
2022-09-30T00:06:56.521Z,8.19
2022-09-30T00:09:25.977Z,8.15
2022-09-30T00:11:55.559Z,8.14
2022-09-30T00:14:25.247Z,8.12
2022-09-30T00:16:54.537Z,8.08
2022-09-30T00:19:23.819Z,8.05
2022-09-30T00:21:53.239Z,8.02
2022-09-30T00:24:22.474Z,7.98
2022-09-30T00:26:51.678Z,7.94
2022-09-30T00:29:21.172Z,7.89
2022-09-30T00:31:50.871Z,7.88
2022-09-30T00:34:20.182Z,7.86
2022-09-30T00:36:52.642Z,7.81
2022-09-30T00:39:24.338Z,7.80
2022-09-30T00:41:56.790Z,7.78
2022-09-30T00:44:54.715Z,7.80
2022-09-30T00:47:29.757Z,7.72
2022-09-30T00:50:14.633Z,7.70
2022-09-30T00:52:47.959Z,7.68
2022-09-30T00:55:26.028Z,7.65
2022-09-30T00:57:55.722Z,7.60
2022-09-30T01:00:25.002Z,7.56
2022-09-30T01:02:55.216Z,7.54
2022-09-30T01:05:26.706Z,7.54
2022-09-30T01:07:59.251Z,7.50
2022-09-30T01:10:27.768Z,7.46
2022-09-30T01:12:57.850Z,7.44
2022-09-30T01:15:30.250Z,7.44
2022-09-30T01:18:02.917Z,7.44
2022-09-30T01:20:55.390Z,7.42
2022-09-30T01:23:36.934Z,7.41
2022-09-30T01:26:12.278Z,7.42
2022-09-30T01:28:50.178Z,7.40
2022-09-30T01:31:31.403Z,7.37
2022-09-30T01:34:12.945Z,7.37
2022-09-30T01:37:00.584Z,7.36
2022-09-30T01:39:39.215Z,7.36
2022-09-30T01:42:14.412Z,7.31
2022-09-30T01:44:53.577Z,7.30
2022-09-30T01:47:28.249Z,7.32
2022-09-30T01:50:18.649Z,7.31
2022-09-30T01:53:06.440Z,7.31
2022-09-30T01:56:00.289Z,7.31
2022-09-30T01:58:38.553Z,7.30
2022-09-30T02:01:11.210Z,7.30
2022-09-30T02:03:41.514Z,7.28
2022-09-30T02:06:14.195Z,7.27
2022-09-30T02:08:52.421Z,7.27
2022-09-30T02:11:28.008Z,7.27
2022-09-30T02:14:03.107Z,7.22
2022-09-30T02:16:35.564Z,7.18
2022-09-30T02:19:16.587Z,7.13
2022-09-30T02:21:49.316Z,7.12
2022-09-30T02:24:19.394Z,7.13
2022-09-30T02:26:49.693Z,7.11
2022-09-30T02:29:24.802Z,7.09
2022-09-30T02:31:57.195Z,7.06
2022-09-30T02:34:32.903Z,7.09
2022-09-30T02:37:05.723Z,7.12
2022-09-30T02:39:59.204Z,7.11
2022-09-30T02:42:30.437Z,7.08
2022-09-30T02:45:08.737Z,7.04
2022-09-30T02:47:58.211Z,7.00
2022-09-30T02:50:42.182Z,6.96
2022-09-30T02:53:33.329Z,6.93
2022-09-30T02:56:18.479Z,6.92
2022-09-30T02:58:48.539Z,6.92
2022-09-30T03:01:18.613Z,6.90
2022-09-30T03:04:07.258Z,6.90
2022-09-30T03:06:37.682Z,6.89
2022-09-30T03:09:08.024Z,6.86
2022-09-30T03:11:38.629Z,6.88
2022-09-30T03:14:20.487Z,6.86
2022-09-30T03:16:55.644Z,6.86
2022-09-30T03:19:56.757Z,6.82
2022-09-30T03:22:51.369Z,6.80
2022-09-30T03:25:26.691Z,6.81
2022-09-30T03:28:05.260Z,6.82
2022-09-30T03:30:37.885Z,6.83
2022-09-30T03:33:11.299Z,6.86
2022-09-30T03:36:03.445Z,6.87
2022-09-30T03:38:47.980Z,6.86
2022-09-30T03:41:20.434Z,6.88
2022-09-30T03:43:59.512Z,6.90
2022-09-30T03:46:31.944Z,6.89
2022-09-30T03:49:04.185Z,6.85
2022-09-30T03:51:35.766Z,6.84
2022-09-30T03:54:10.470Z,6.85
2022-09-30T03:56:42.065Z,6.85
2022-09-30T03:59:13.549Z,6.84
2022-09-30T04:01:42.898Z,6.85
2022-09-30T04:04:12.624Z,6.85
2022-09-30T04:06:41.856Z,6.82
2022-09-30T04:09:11.146Z,6.88
2022-09-30T04:11:40.528Z,6.89
2022-09-30T04:14:09.932Z,6.88
2022-09-30T04:16:39.256Z,6.88
2022-09-30T04:19:08.999Z,6.84
2022-09-30T04:21:38.283Z,6.80
2022-09-30T04:24:08.539Z,6.79
2022-09-30T04:26:37.761Z,6.77
2022-09-30T04:29:07.070Z,6.74
2022-09-30T04:31:36.554Z,6.72
2022-09-30T04:34:06.233Z,6.71
2022-09-30T04:36:35.788Z,6.76
2022-09-30T04:39:05.595Z,6.78
2022-09-30T04:41:34.798Z,6.80
2022-09-30T04:44:05.739Z,6.80
2022-09-30T04:46:37.039Z,6.76
2022-09-30T04:49:09.371Z,6.76
2022-09-30T04:51:38.541Z,6.73
2022-09-30T04:54:07.886Z,6.71
2022-09-30T04:56:37.291Z,6.68
2022-09-30T04:59:07.158Z,6.65
2022-09-30T05:01:36.504Z,6.62
2022-09-30T05:04:05.999Z,6.66
2022-09-30T05:06:35.359Z,6.62
2022-09-30T05:09:04.788Z,6.59
2022-09-30T05:11:34.177Z,6.59
2022-09-30T05:14:05.279Z,6.66
2022-09-30T05:16:34.799Z,6.68
2022-09-30T05:19:04.598Z,6.71
2022-09-30T05:21:34.081Z,6.67
2022-09-30T05:24:04.025Z,6.65
2022-09-30T05:26:33.230Z,6.63
2022-09-30T05:29:03.386Z,6.61
2022-09-30T05:31:32.644Z,6.56
2022-09-30T05:34:02.198Z,6.54
2022-09-30T05:36:31.454Z,6.53
2022-09-30T05:39:00.706Z,6.53
2022-09-30T05:41:29.918Z,6.52
2022-09-30T05:44:01.022Z,6.55
2022-09-30T05:46:30.753Z,6.58
2022-09-30T05:49:00.635Z,6.59
2022-09-30T05:51:29.829Z,6.60
2022-09-30T05:53:59.253Z,6.64
2022-09-30T05:56:28.531Z,6.60
2022-09-30T05:58:57.767Z,6.59
2022-09-30T06:01:26.971Z,6.62
2022-09-30T06:03:56.220Z,6.63
2022-09-30T06:06:25.438Z,6.66
2022-09-30T06:08:54.811Z,6.71
2022-09-30T06:11:24.977Z,6.71
2022-09-30T06:13:54.306Z,6.77
2022-09-30T06:16:24.206Z,6.81
2022-09-30T06:18:54.571Z,6.90
2022-09-30T06:21:23.858Z,7.03
2022-09-30T06:23:53.163Z,7.20
2022-09-30T06:26:22.452Z,7.32
2022-09-30T06:28:51.871Z,7.42
2022-09-30T06:31:21.187Z,7.46
2022-09-30T06:33:54.929Z,7.52
2022-09-30T06:36:24.544Z,7.63
2022-09-30T06:38:54.435Z,7.89
2022-09-30T06:41:25.455Z,8.04
2022-09-30T06:44:00.911Z,8.09
2022-09-30T06:46:31.075Z,8.22
2022-09-30T06:49:09.368Z,8.34
2022-09-30T06:51:33.379Z,8.45
2022-09-30T06:54:02.772Z,8.59
2022-09-30T06:56:32.177Z,8.63
2022-09-30T06:59:01.857Z,8.70
2022-09-30T07:01:31.156Z,8.76
2022-09-30T07:04:00.961Z,8.86
2022-09-30T07:06:31.156Z,8.92
2022-09-30T07:09:00.514Z,9.00
2022-09-30T07:11:29.848Z,9.08
2022-09-30T07:13:59.099Z,9.14
2022-09-30T07:16:28.663Z,9.27
2022-09-30T07:18:59.466Z,9.33
2022-09-30T07:21:30.287Z,9.42
2022-09-30T07:24:00.334Z,9.52
2022-09-30T07:26:30.943Z,9.62
2022-09-30T07:29:00.680Z,9.72
2022-09-30T07:31:33.666Z,9.89
2022-09-30T07:34:01.530Z,9.92
2022-09-30T07:36:33.539Z,10.00
2022-09-30T07:39:06.994Z,10.13
2022-09-30T07:41:38.739Z,10.11
2022-09-30T07:44:12.106Z,10.28
2022-09-30T07:46:42.217Z,10.39
2022-09-30T07:49:18.710Z,10.45
2022-09-30T07:51:50.154Z,10.57
2022-09-30T07:54:25.521Z,10.62
2022-09-30T07:57:09.638Z,10.68
2022-09-30T07:59:27.234Z,10.72
2022-09-30T08:01:57.291Z,10.83
2022-09-30T08:04:27.607Z,10.98
2022-09-30T08:06:59.945Z,11.27
2022-09-30T08:09:31.027Z,11.50
2022-09-30T08:12:00.568Z,11.59
2022-09-30T08:14:29.803Z,11.95
2022-09-30T08:17:00.779Z,11.98
2022-09-30T08:19:33.499Z,11.92
2022-09-30T08:24:31.707Z,12.25
2022-09-30T08:27:01.044Z,12.43
2022-09-30T08:32:02.236Z,12.76
2022-09-30T08:34:33.239Z,13.02
2022-09-30T08:37:08.422Z,13.12
2022-09-30T08:39:33.700Z,13.01
2022-09-30T08:42:19.102Z,13.23
2022-09-30T08:44:40.275Z,13.84
2022-09-30T08:47:15.674Z,14.67
2022-09-30T08:49:54.297Z,15.83
2022-09-30T08:52:30.487Z,17.23
2022-09-30T08:54:58.027Z,18.87
2022-09-30T08:57:29.647Z,19.56
2022-09-30T09:00:01.340Z,21.24
2022-09-30T09:02:35.808Z,21.64
2022-09-30T09:05:07.352Z,20.77
2022-09-30T09:07:39.738Z,20.42
2022-09-30T09:10:16.333Z,20.94
2022-09-30T09:13:00.664Z,21.34
2022-09-30T09:15:33.078Z,21.16
2022-09-30T09:18:29.908Z,22.83
2022-09-30T09:21:02.501Z,22.61
2022-09-30T09:23:33.664Z,22.87
2022-09-30T09:26:04.125Z,23.01
2022-09-30T09:28:39.191Z,24.48
2022-09-30T09:31:11.622Z,24.11
2022-09-30T09:33:40.895Z,23.97
2022-09-30T09:36:31.618Z,23.72
2022-09-30T09:39:25.215Z,24.44
2022-09-30T09:41:57.720Z,23.37
2022-09-30T09:44:35.830Z,23.99
2022-09-30T09:47:17.378Z,21.98
2022-09-30T09:50:04.055Z,22.93
2022-09-30T09:53:00.161Z,22.98
2022-09-30T09:55:29.364Z,23.46
2022-09-30T09:58:10.571Z,22.77
2022-09-30T10:00:44.205Z,23.64
2022-09-30T10:03:26.246Z,23.82
2022-09-30T10:06:10.278Z,23.44
2022-09-30T10:08:42.886Z,23.27
2022-09-30T10:11:26.557Z,21.42
2022-09-30T10:14:00.798Z,22.26
2022-09-30T10:16:37.873Z,21.60
2022-09-30T10:19:24.363Z,22.47
2022-09-30T10:22:12.358Z,23.17
2022-09-30T10:24:41.935Z,24.36
2022-09-30T10:27:31.957Z,25.18
2022-09-30T10:30:01.204Z,23.91
2022-09-30T10:32:30.812Z,24.42
2022-09-30T10:35:06.193Z,21.83
2022-09-30T10:37:35.468Z,21.23
2022-09-30T10:40:09.643Z,20.78
2022-09-30T10:42:41.599Z,21.06
2022-09-30T10:45:25.874Z,20.38
2022-09-30T10:47:56.639Z,20.75
2022-09-30T10:50:27.835Z,19.97
2022-09-30T10:53:03.088Z,21.74
2022-09-30T10:55:38.797Z,21.23
2022-09-30T10:58:27.720Z,20.52
2022-09-30T11:01:16.848Z,21.34
2022-09-30T11:04:07.317Z,21.23
2022-09-30T11:06:39.254Z,22.87
2022-09-30T11:09:12.102Z,23.09
2022-09-30T11:11:44.612Z,23.98
2022-09-30T11:14:34.220Z,23.50
2022-09-30T11:17:12.027Z,23.53
2022-09-30T11:19:53.335Z,23.54
2022-09-30T11:22:50.096Z,21.72
2022-09-30T11:25:22.514Z,20.09
2022-09-30T11:27:58.621Z,20.31
2022-09-30T11:30:34.048Z,19.78
2022-09-30T11:33:15.451Z,20.75
2022-09-30T11:36:05.830Z,20.95
2022-09-30T11:39:01.199Z,19.14
2022-09-30T11:41:32.858Z,19.43
2022-09-30T11:44:05.710Z,18.65
2022-09-30T11:46:47.354Z,19.53
2022-09-30T11:49:51.293Z,20.13
2022-09-30T11:52:26.870Z,18.85
2022-09-30T11:54:59.314Z,18.85
2022-09-30T11:57:32.475Z,19.03
2022-09-30T12:00:02.365Z,18.08
2022-09-30T12:02:45.073Z,17.17
2022-09-30T12:05:23.601Z,16.98
2022-09-30T12:08:17.067Z,17.13
2022-09-30T12:10:53.048Z,18.73
2022-09-30T12:13:25.749Z,19.43
2022-09-30T12:15:57.725Z,19.50
2022-09-30T12:18:39.997Z,19.73
2022-09-30T12:21:15.173Z,19.61
2022-09-30T12:23:47.419Z,20.49
2022-09-30T12:26:17.733Z,20.57
2022-09-30T12:29:08.287Z,19.49
2022-09-30T12:31:53.195Z,19.68
2022-09-30T12:34:46.379Z,19.50
2022-09-30T12:37:52.238Z,19.48
2022-09-30T12:40:52.326Z,18.39
2022-09-30T12:43:45.078Z,17.43
2022-09-30T12:46:20.672Z,17.43
2022-09-30T12:48:53.702Z,17.11
2022-09-30T12:51:34.333Z,17.15
2022-09-30T12:54:06.769Z,17.72
2022-09-30T12:56:37.662Z,18.46
2022-09-30T12:59:07.740Z,18.51
2022-09-30T13:01:38.402Z,18.24
2022-09-30T13:04:10.862Z,17.88
2022-09-30T13:06:49.553Z,17.44
2022-09-30T13:09:22.285Z,17.32
2022-09-30T13:12:00.547Z,17.88
2022-09-30T13:14:39.992Z,18.61
2022-09-30T13:17:13.042Z,18.61
2022-09-30T13:19:47.574Z,19.59
2022-09-30T13:22:27.391Z,19.49
2022-09-30T13:25:05.541Z,18.78
2022-09-30T13:27:46.947Z,18.90
2022-09-30T13:30:19.344Z,18.72
2022-09-30T13:32:51.629Z,18.67
2022-09-30T13:35:43.999Z,18.33
2022-09-30T13:38:21.635Z,18.42
2022-09-30T13:41:03.279Z,18.25
2022-09-30T13:43:41.713Z,18.25
2022-09-30T13:46:23.062Z,18.30
2022-09-30T13:49:01.812Z,18.85
2022-09-30T13:51:33.345Z,18.54
2022-09-30T13:54:06.349Z,18.62
2022-09-30T13:56:37.836Z,18.32
2022-09-30T13:59:27.988Z,18.33
2022-09-30T14:02:18.010Z,18.65
2022-09-30T14:04:52.480Z,18.65
2022-09-30T14:07:38.053Z,18.52
2022-09-30T14:10:16.087Z,18.51
2022-09-30T14:13:09.535Z,18.55
2022-09-30T14:15:46.499Z,18.32
2022-09-30T14:18:27.679Z,18.38
2022-09-30T14:21:21.065Z,18.43
2022-09-30T14:24:00.996Z,18.19
2022-09-30T14:26:52.850Z,18.02
2022-09-30T14:29:39.682Z,18.10
2022-09-30T14:32:13.804Z,18.09
2022-09-30T14:34:43.626Z,17.54
2022-09-30T14:37:18.969Z,17.25
2022-09-30T14:39:49.378Z,16.91
2022-09-30T14:42:29.193Z,17.17
2022-09-30T14:45:01.717Z,17.13
2022-09-30T14:47:32.018Z,16.83
2022-09-30T14:50:03.088Z,16.70
2022-09-30T14:52:44.028Z,17.05
2022-09-30T14:55:28.659Z,17.33
2022-09-30T14:58:24.543Z,17.54
2022-09-30T15:01:02.242Z,17.74
2022-09-30T15:03:33.299Z,17.74
2022-09-30T15:06:02.782Z,17.43
2022-09-30T15:08:32.446Z,17.16
2022-09-30T15:11:02.091Z,16.83
2022-09-30T15:13:32.649Z,16.52
2022-09-30T15:16:02.654Z,16.55
2022-09-30T15:18:35.762Z,16.88
2022-09-30T15:21:16.136Z,16.74
2022-09-30T15:23:47.978Z,16.64
2022-09-30T15:26:18.135Z,16.73
2022-09-30T15:28:48.051Z,16.83
2022-09-30T15:31:23.205Z,16.86
2022-09-30T15:34:07.126Z,16.92
2022-09-30T15:36:37.290Z,16.83
2022-09-30T15:39:09.106Z,16.66
2022-09-30T15:41:42.281Z,16.62
2022-09-30T15:44:38.586Z,16.42
2022-09-30T15:47:09.653Z,16.34
2022-09-30T15:49:45.323Z,16.34
2022-09-30T15:52:39.652Z,16.20
2022-09-30T15:55:37.975Z,16.18
2022-09-30T15:58:10.487Z,16.25
2022-09-30T16:00:41.352Z,16.07
2022-09-30T16:03:17.235Z,15.90
2022-09-30T16:05:50.717Z,15.75
2022-09-30T16:08:24.620Z,15.67
2022-09-30T16:10:57.143Z,15.57
2022-09-30T16:13:29.014Z,15.45
2022-09-30T16:15:59.609Z,15.39
2022-09-30T16:18:33.990Z,15.32
2022-09-30T16:21:03.654Z,15.32
2022-09-30T16:23:38.461Z,15.21
2022-09-30T16:26:19.929Z,15.16
2022-09-30T16:28:49.293Z,15.00
2022-09-30T16:31:18.973Z,14.93
2022-09-30T16:33:49.320Z,14.89
2022-09-30T16:36:18.836Z,14.85
2022-09-30T16:38:48.262Z,14.88
2022-09-30T16:41:17.548Z,14.79
2022-09-30T16:43:46.953Z,14.74
2022-09-30T16:46:16.209Z,14.67
2022-09-30T16:48:45.671Z,14.62
2022-09-30T16:51:17.024Z,14.57
2022-09-30T16:53:48.148Z,14.57
2022-09-30T16:56:19.686Z,14.52
2022-09-30T16:58:49.132Z,14.44
2022-09-30T17:01:20.964Z,14.38
2022-09-30T17:03:50.600Z,14.38
2022-09-30T17:06:21.425Z,14.41
2022-09-30T17:08:50.859Z,14.46
2022-09-30T17:11:20.497Z,14.38
2022-09-30T17:13:49.985Z,14.37
2022-09-30T17:16:19.205Z,14.37
2022-09-30T17:18:48.471Z,14.36
2022-09-30T17:21:21.417Z,14.33
2022-09-30T17:23:51.841Z,14.29
2022-09-30T17:26:21.109Z,14.27
2022-09-30T17:28:50.542Z,14.23
2022-09-30T17:31:19.890Z,14.20
2022-09-30T17:33:49.200Z,14.17
2022-09-30T17:36:19.223Z,14.07
2022-09-30T17:38:48.681Z,14.01
2022-09-30T17:41:36.084Z,14.03
2022-09-30T17:44:05.428Z,14.00
2022-09-30T17:46:43.567Z,13.92
2022-09-30T17:49:21.891Z,13.92
2022-09-30T17:51:49.504Z,13.91
2022-09-30T17:54:18.912Z,13.98
2022-09-30T17:56:48.420Z,13.86
2022-09-30T17:59:19.497Z,13.87
2022-09-30T18:01:50.891Z,13.80
2022-09-30T18:04:22.451Z,13.75
2022-09-30T18:06:51.764Z,13.69
2022-09-30T18:09:21.301Z,13.74
2022-09-30T18:11:51.116Z,13.70
2022-09-30T18:14:20.386Z,13.63
2022-09-30T18:16:49.728Z,13.54
2022-09-30T18:19:18.957Z,13.47
2022-09-30T18:21:48.255Z,13.45
2022-09-30T18:24:17.475Z,13.53
2022-09-30T18:26:46.874Z,13.40
2022-09-30T18:29:16.079Z,13.59
2022-09-30T18:31:46.535Z,13.55
2022-09-30T18:34:15.873Z,13.57
2022-09-30T18:36:45.580Z,13.55
2022-09-30T18:39:14.853Z,13.55
2022-09-30T18:41:45.758Z,13.54
2022-09-30T18:44:15.475Z,13.48
2022-09-30T18:46:44.754Z,13.42
2022-09-30T18:49:14.333Z,13.38
2022-09-30T18:51:43.637Z,13.34
2022-09-30T18:54:14.636Z,13.32
2022-09-30T18:56:44.426Z,13.28
2022-09-30T18:59:17.145Z,13.29
2022-09-30T19:01:46.547Z,13.24
2022-09-30T19:04:15.876Z,13.24
2022-09-30T19:06:47.647Z,13.22
2022-09-30T19:09:17.241Z,13.22
2022-09-30T19:11:48.138Z,13.16
2022-09-30T19:14:17.353Z,13.16
2022-09-30T19:16:46.664Z,13.14
2022-09-30T19:19:16.260Z,13.14
2022-09-30T19:21:45.783Z,13.16
2022-09-30T19:24:16.742Z,13.20
2022-09-30T19:26:47.800Z,13.18
2022-09-30T19:29:18.391Z,13.28
2022-09-30T19:31:47.956Z,13.31
2022-09-30T19:34:29.183Z,13.30
2022-09-30T19:36:51.868Z,13.27
2022-09-30T19:39:19.163Z,13.24
2022-09-30T19:41:48.578Z,13.27
2022-09-30T19:44:19.489Z,13.32
2022-09-30T19:46:52.119Z,13.39
2022-09-30T19:49:22.125Z,13.41
2022-09-30T19:51:55.372Z,13.36
2022-09-30T19:54:37.050Z,13.34
2022-09-30T19:56:55.732Z,13.40
2022-09-30T19:59:25.161Z,13.40
2022-09-30T20:01:56.151Z,13.33
2022-09-30T20:04:25.946Z,13.32
2022-09-30T20:06:55.208Z,13.48
2022-09-30T20:09:24.492Z,13.47
2022-09-30T20:11:53.714Z,13.44
2022-09-30T20:14:40.756Z,13.49
2022-09-30T20:17:11.251Z,13.54
2022-09-30T20:19:40.554Z,13.50
2022-09-30T20:22:09.729Z,13.47
2022-09-30T20:24:39.616Z,13.55
2022-09-30T20:27:09.600Z,13.49
2022-09-30T20:29:38.998Z,13.50
2022-09-30T20:32:08.349Z,13.51
2022-09-30T20:34:39.036Z,13.55
2022-09-30T20:37:08.257Z,13.59
2022-09-30T20:39:39.170Z,13.61
2022-09-30T20:42:08.377Z,13.61
2022-09-30T20:44:38.004Z,13.61
2022-09-30T20:47:07.228Z,13.57
2022-09-30T20:49:36.480Z,13.56
2022-09-30T20:52:06.057Z,13.50
2022-09-30T20:54:36.136Z,13.53
2022-09-30T20:57:07.842Z,13.45
2022-09-30T20:59:36.375Z,13.44
2022-09-30T21:02:07.237Z,13.37
2022-09-30T21:04:36.697Z,13.28
2022-09-30T21:07:07.002Z,13.22
2022-09-30T21:09:36.420Z,13.19
2022-09-30T21:12:06.587Z,13.12
2022-09-30T21:14:36.879Z,12.96
2022-09-30T21:17:07.888Z,12.68
2022-09-30T21:19:38.798Z,12.50
2022-09-30T21:22:08.547Z,12.45
2022-09-30T21:24:37.936Z,12.29
2022-09-30T21:27:08.181Z,12.19
2022-09-30T21:29:37.552Z,12.11
2022-09-30T21:32:07.007Z,11.98
2022-09-30T21:34:36.365Z,11.89
2022-09-30T21:37:05.563Z,11.96
2022-09-30T21:39:35.003Z,11.74
2022-09-30T21:42:04.958Z,11.68
2022-09-30T21:44:34.287Z,11.72
2022-09-30T21:47:03.579Z,11.66
2022-09-30T21:49:32.979Z,11.50
2022-09-30T21:52:04.062Z,11.43
2022-09-30T21:54:33.324Z,11.41
2022-09-30T21:57:02.615Z,11.34
2022-09-30T21:59:32.046Z,11.25
2022-09-30T22:02:01.499Z,11.16
2022-09-30T22:04:30.890Z,11.12
2022-09-30T22:07:00.146Z,11.05
2022-09-30T22:09:29.390Z,10.98
2022-09-30T22:11:58.755Z,10.93
2022-09-30T22:14:28.039Z,10.87
2022-09-30T22:16:57.493Z,10.83
2022-09-30T22:19:27.092Z,10.82
2022-09-30T22:21:56.325Z,10.78
2022-09-30T22:24:25.876Z,10.81
2022-09-30T22:26:55.091Z,10.78
2022-09-30T22:29:24.537Z,10.73
2022-09-30T22:31:53.848Z,10.75
2022-09-30T22:34:41.103Z,10.71
2022-09-30T22:37:29.522Z,10.70
2022-09-30T22:40:01.049Z,10.66
2022-09-30T22:42:29.683Z,10.67
2022-09-30T22:44:59.059Z,10.68
2022-09-30T22:47:28.371Z,10.64
2022-09-30T22:49:57.677Z,10.67
2022-09-30T22:52:26.927Z,10.61
2022-09-30T22:54:57.035Z,10.60
2022-09-30T22:57:26.417Z,10.64
2022-09-30T22:59:57.281Z,10.60
2022-09-30T23:02:26.680Z,10.60
2022-09-30T23:04:55.923Z,10.67
2022-09-30T23:07:25.279Z,10.66
2022-09-30T23:09:54.525Z,10.65
2022-09-30T23:12:24.498Z,10.68
2022-09-30T23:14:53.926Z,10.69
2022-09-30T23:17:23.343Z,10.68
2022-09-30T23:19:52.552Z,10.69
2022-09-30T23:22:21.987Z,10.65
2022-09-30T23:24:51.219Z,10.68
2022-09-30T23:27:20.484Z,10.71
2022-09-30T23:29:49.700Z,10.71
2022-09-30T23:32:19.272Z,10.70
2022-09-30T23:34:48.633Z,10.73
2022-09-30T23:37:17.983Z,10.77
2022-09-30T23:39:48.450Z,10.78
2022-09-30T23:42:18.742Z,10.77
2022-09-30T23:44:48.030Z,10.80
2022-09-30T23:47:19.964Z,10.84
2022-09-30T23:49:50.361Z,10.81
2022-09-30T23:52:19.594Z,10.90
2022-09-30T23:54:48.808Z,10.92
2022-09-30T23:57:18.215Z,10.93
2022-09-30T23:59:47.500Z,10.87
